Time;durP1;ratioP1;P1;durP2;ratioP2;P2;SDS_P1;SDS_P2;PMS_P1;PMS_P2;Temp;Humidity;BMP_temperature;BMP_pressure;BME280_temperature;BME280_humidity;BME280_pressure;Samples;Min_cycle;Max_cycle;Signal;HPM_P1;HPM_P2
2021/06/02 00:02:11;;;;;;;1.87;1.73;;;;;;;14.85;49.12;96528.38;5031334;28;20595;-62
2021/06/02 00:04:43;;;;;;;1.77;1.40;;;;;;;14.88;48.91;96537.59;5013346;28;20195;-62
2021/06/02 00:07:10;;;;;;;1.60;1.50;;;;;;;14.95;48.67;96530.22;5031796;28;20282;-62
2021/06/02 00:09:36;;;;;;;2.90;1.70;;;;;;;14.91;48.68;96529.97;5030500;28;20187;-60
2021/06/02 00:12:11;;;;;;;1.50;1.40;;;;;;;14.79;49.23;96536.53;5031349;28;20659;-62
2021/06/02 00:14:38;;;;;;;1.87;1.77;;;;;;;14.77;49.40;96538.63;5030783;28;20456;-62
2021/06/02 00:17:05;;;;;;;2.00;1.80;;;;;;;14.71;49.62;96537.03;5013770;28;20186;-61
2021/06/02 00:19:31;;;;;;;1.60;1.50;;;;;;;14.74;49.45;96539.16;5029226;28;20368;-61
2021/06/02 00:21:59;;;;;;;1.80;1.70;;;;;;;14.70;49.65;96538.09;5031540;28;20184;-62
2021/06/02 00:24:25;;;;;;;2.20;1.87;;;;;;;14.57;49.83;96523.53;5030297;28;20275;-62
2021/06/02 00:26:53;;;;;;;2.03;1.93;;;;;;;14.47;50.04;96534.03;5031227;28;20201;-62
2021/06/02 00:29:20;;;;;;;1.87;1.67;;;;;;;14.38;50.23;96527.63;5012984;28;20655;-62
2021/06/02 00:31:47;;;;;;;2.63;1.40;;;;;;;14.29;50.42;96527.31;5031392;28;20183;-61
2021/06/02 00:34:14;;;;;;;2.03;1.70;;;;;;;14.31;50.40;96524.44;5030250;28;20306;-63
2021/06/02 00:36:40;;;;;;;1.63;1.53;;;;;;;14.52;49.44;96524.28;5030395;28;20182;-61
2021/06/02 00:39:07;;;;;;;1.77;1.67;;;;;;;14.43;49.31;96525.81;5013411;28;20269;-63
2021/06/02 00:41:34;;;;;;;3.90;1.60;;;;;;;14.54;49.08;96518.78;5030143;28;20212;-62
2021/06/02 00:44:01;;;;;;;1.50;1.40;;;;;;;14.40;49.24;96526.34;5030426;28;20190;-61
2021/06/02 00:46:27;;;;;;;1.77;1.67;;;;;;;14.48;49.08;96522.44;5029093;28;20190;-61
2021/06/02 00:48:52;;;;;;;1.60;1.47;;;;;;;14.47;49.13;96526.91;5013641;28;20190;-62
2021/06/02 00:51:19;;;;;;;2.00;1.70;;;;;;;14.44;49.11;96530.06;5012734;28;20190;-64
2021/06/02 00:53:46;;;;;;;2.37;1.43;;;;;;;14.30;49.58;96531.53;5033505;28;20545;-62
2021/06/02 00:56:13;;;;;;;2.60;1.50;;;;;;;14.23;50.24;96525.69;5034681;28;20190;-62
2021/06/02 00:58:45;;;;;;;1.83;1.73;;;;;;;14.30;50.27;96533.38;5034400;28;20187;-62
2021/06/02 01:01:11;;;;;;;5.13;1.80;;;;;;;14.26;50.65;96532.31;5035203;28;20167;-62
2021/06/02 01:03:39;;;;;;;1.70;1.60;;;;;;;14.19;50.70;96537.00;5034184;28;20202;-62
2021/06/02 01:06:05;;;;;;;1.60;1.50;;;;;;;14.12;50.82;96524.84;5035017;28;20198;-62
2021/06/02 01:08:35;;;;;;;1.63;1.53;;;;;;;14.18;50.49;96530.16;5033924;28;20236;-62
2021/06/02 01:11:01;;;;;;;1.83;1.67;;;;;;;14.02;51.04;96518.72;5034643;28;20186;-61
2021/06/02 01:13:28;;;;;;;1.97;1.70;;;;;;;13.98;51.35;96518.47;5016019;28;20178;-62
2021/06/02 01:15:54;;;;;;;1.93;1.83;;;;;;;13.92;51.42;96530.00;5034360;28;20189;-62
2021/06/02 01:18:20;;;;;;;2.27;1.60;;;;;;;13.92;51.48;96527.38;5033823;28;20643;-62
2021/06/02 01:20:46;;;;;;;1.70;1.60;;;;;;;13.83;51.75;96526.25;5016927;28;20240;-62
2021/06/02 01:23:12;;;;;;;1.67;1.57;;;;;;;13.80;51.53;96524.13;5034397;28;20190;-62
2021/06/02 01:25:43;;;;;;;1.70;1.60;;;;;;;13.72;52.02;96535.13;5015549;28;20199;-61
2021/06/02 01:28:08;;;;;;;1.73;1.63;;;;;;;13.73;51.71;96526.16;5034156;28;20206;-62
2021/06/02 01:30:35;;;;;;;1.63;1.53;;;;;;;13.77;51.49;96529.88;5033292;28;20266;-61
2021/06/02 01:33:33;;;;;;;1.93;1.70;;;;;;;13.70;51.72;96531.97;5033450;28;20219;-63
2021/06/02 01:36:04;;;;;;;1.60;1.50;;;;;;;13.70;52.16;96529.31;5020022;28;20171;-63
2021/06/02 01:39:10;;;;;;;1.87;1.47;;;;;;;13.61;52.70;96533.44;5033078;28;20187;-62
2021/06/02 01:42:22;;;;;;;1.70;1.60;;;;;;;13.46;53.60;96531.50;5033009;28;20182;-63
2021/06/02 01:45:22;;;;;;;1.80;1.70;;;;;;;13.41;53.92;96531.47;5013059;28;20203;-61
2021/06/02 01:47:50;;;;;;;2.43;1.80;;;;;;;13.37;53.99;96529.56;5033806;28;20199;-61
2021/06/02 01:50:20;;;;;;;1.90;1.80;;;;;;;13.32;54.21;96527.66;5033578;28;20542;-64
2021/06/02 01:52:55;;;;;;;2.40;2.20;;;;;;;13.33;53.70;96524.78;5034088;28;20245;-61
2021/06/02 01:55:46;;;;;;;1.80;1.70;;;;;;;13.40;53.78;96531.69;5015009;28;20564;-62
2021/06/02 01:58:51;;;;;;;1.70;1.60;;;;;;;13.28;54.00;96524.75;5033938;28;20174;-61
2021/06/02 02:01:38;;;;;;;2.10;2.00;;;;;;;13.17;54.30;96523.06;5033304;28;20178;-64
2021/06/02 02:04:35;;;;;;;2.20;2.00;;;;;;;13.23;54.12;96522.06;5002204;28;20244;-61
2021/06/02 02:07:00;;;;;;;2.03;1.83;;;;;;;13.15;54.25;96530.41;5033709;28;20199;-61
2021/06/02 02:10:03;;;;;;;2.23;2.03;;;;;;;13.11;54.69;96531.94;5032591;28;20175;-61
2021/06/02 02:12:50;;;;;;;2.17;1.97;;;;;;;13.11;54.85;96526.66;5032511;28;20204;-61
2021/06/02 02:15:40;;;;;;;1.80;1.70;;;;;;;13.11;54.90;96524.03;5033158;28;20175;-64
2021/06/02 02:18:31;;;;;;;2.23;2.00;;;;;;;13.11;54.96;96526.66;5020424;28;20209;-62
2021/06/02 02:20:59;;;;;;;2.43;1.80;;;;;;;13.07;55.04;96527.41;5027467;28;20179;-61
2021/06/02 02:23:28;;;;;;;2.83;2.13;;;;;;;12.91;55.57;96518.59;5032434;28;20185;-62
2021/06/02 02:26:21;;;;;;;2.80;2.00;;;;;;;12.86;55.80;96519.31;5015528;28;20190;-62
2021/06/02 02:28:52;;;;;;;2.03;1.93;;;;;;;12.87;55.38;96523.53;5017829;28;20258;-62
2021/06/02 02:31:26;;;;;;;2.30;2.10;;;;;;;12.94;54.99;96533.84;5032640;28;20175;-64
2021/06/02 02:34:04;;;;;;;1.93;1.83;;;;;;;12.93;55.24;96534.13;5032733;28;20234;-61
2021/06/02 02:36:46;;;;;;;2.10;1.90;;;;;;;13.06;54.84;96538.97;5032384;28;20254;-61
2021/06/02 02:39:23;;;;;;;2.37;2.10;;;;;;;12.83;55.60;96532.16;5033086;28;20270;-61
2021/06/02 02:42:05;;;;;;;1.77;1.67;;;;;;;12.75;55.45;96535.25;5017725;28;20197;-62
2021/06/02 02:45:07;;;;;;;3.67;2.10;;;;;;;12.79;55.35;96544.22;5031837;28;20175;-61
2021/06/02 02:47:36;;;;;;;1.80;1.70;;;;;;;12.84;55.29;96545.06;5030295;28;20214;-62
2021/06/02 02:50:10;;;;;;;2.13;2.00;;;;;;;12.74;55.58;96547.59;5033231;28;20183;-61
2021/06/02 02:53:20;;;;;;;2.57;1.97;;;;;;;12.79;55.43;96544.22;5032140;28;20229;-62
2021/06/02 02:55:53;;;;;;;1.83;1.73;;;;;;;12.76;55.18;96542.09;4952285;29;20198;-63
2021/06/02 02:58:30;;;;;;;2.30;2.10;;;;;;;12.74;55.50;96547.59;4935542;29;20662;-63
2021/06/02 03:01:17;;;;;;;1.83;1.73;;;;;;;12.80;55.17;96541.34;4996940;28;20277;-63
2021/06/02 03:04:04;;;;;;;2.30;1.90;;;;;;;12.89;55.09;96539.06;5032421;28;20187;-64
2021/06/02 03:06:41;;;;;;;2.60;2.13;;;;;;;12.93;54.85;96544.66;5031697;28;20772;-63
2021/06/02 03:09:21;;;;;;;2.20;1.90;;;;;;;12.83;55.00;96534.78;5032702;28;20245;-63
2021/06/02 03:12:09;;;;;;;2.47;2.00;;;;;;;12.91;55.03;96542.25;5017030;28;20178;-63
2021/06/02 03:14:47;;;;;;;1.87;1.70;;;;;;;12.82;54.80;96551.59;4992195;28;20198;-61
2021/06/02 03:17:20;;;;;;;1.60;1.50;;;;;;;12.74;55.05;96554.69;5032170;28;20194;-62
2021/06/02 03:20:01;;;;;;;2.33;1.80;;;;;;;12.75;54.93;96551.81;5032801;28;20170;-62
2021/06/02 03:22:56;;;;;;;2.13;1.60;;;;;;;12.73;55.00;96553.88;5031597;28;20635;-62
2021/06/02 03:25:30;;;;;;;2.27;2.07;;;;;;;12.69;54.96;96558.06;5031364;28;20225;-62
2021/06/02 03:28:22;;;;;;;3.73;1.60;;;;;;;12.62;55.79;96557.44;5032325;28;20203;-61
2021/06/02 03:31:00;;;;;;;1.90;1.80;;;;;;;12.56;56.40;96558.41;5024430;28;20185;-61
2021/06/02 03:34:03;;;;;;;1.80;1.70;;;;;;;12.59;56.34;96559.78;5030285;28;20226;-61
2021/06/02 03:36:39;;;;;;;2.23;2.03;;;;;;;12.54;56.79;96564.97;5030876;28;20579;-62
2021/06/02 03:39:22;;;;;;;3.03;1.90;;;;;;;12.46;56.86;96564.34;5031957;28;20174;-61
2021/06/02 03:42:18;;;;;;;2.10;1.90;;;;;;;12.53;56.58;96569.44;5031806;28;20166;-61
2021/06/02 03:45:19;;;;;;;2.53;2.07;;;;;;;12.61;56.73;96568.19;5030948;28;20170;-61
2021/06/02 03:48:03;;;;;;;2.17;1.97;;;;;;;12.88;56.28;96569.84;5031615;28;20789;-63
2021/06/02 03:50:36;;;;;;;2.40;2.00;;;;;;;13.13;55.10;96561.47;5020601;28;20272;-61
2021/06/02 03:53:07;;;;;;;2.20;1.80;;;;;;;13.38;54.61;96565.38;5032056;28;20202;-61
2021/06/02 03:55:53;;;;;;;1.90;1.80;;;;;;;13.62;53.91;96569.28;5031187;28;20257;-61
2021/06/02 03:58:40;;;;;;;2.47;1.77;;;;;;;13.89;52.88;96571.84;5031060;28;20531;-64
2021/06/02 04:01:43;;;;;;;2.03;1.83;;;;;;;14.00;52.34;96578.78;5018273;28;20277;-61
2021/06/02 04:04:25;;;;;;;2.17;2.00;;;;;;;14.24;52.08;96569.47;5031006;28;20205;-61
2021/06/02 04:07:09;;;;;;;2.10;2.00;;;;;;;14.53;51.28;96573.38;5024098;28;20205;-61
2021/06/02 04:09:52;;;;;;;1.70;1.60;;;;;;;14.50;51.11;96568.59;5030982;28;20178;-61
2021/06/02 04:12:48;;;;;;;2.20;2.00;;;;;;;14.78;50.74;96566.59;5031258;28;20536;-64
2021/06/02 04:15:15;;;;;;;2.10;1.90;;;;;;;14.84;50.11;96574.28;4996901;28;20541;-61
2021/06/02 04:17:48;;;;;;;2.53;2.07;;;;;;;15.09;49.51;96570.16;5030906;28;20179;-61
2021/06/02 04:20:15;;;;;;;2.27;1.93;;;;;;;15.18;49.47;96568.56;5031642;28;20177;-61
2021/06/02 04:22:44;;;;;;;3.00;1.80;;;;;;;15.14;48.88;96567.50;5012913;28;20232;-61
2021/06/02 04:25:12;;;;;;;1.63;1.53;;;;;;;15.15;48.27;96571.75;5031449;28;20597;-62
2021/06/02 04:27:38;;;;;;;1.77;1.67;;;;;;;15.43;47.86;96567.84;5029346;28;20671;-61
2021/06/02 04:30:06;;;;;;;1.80;1.70;;;;;;;15.62;46.88;96568.94;5031365;28;20229;-61
2021/06/02 04:32:41;;;;;;;2.00;1.70;;;;;;;15.72;47.41;96576.84;5029765;28;20232;-61
2021/06/02 04:35:08;;;;;;;1.70;1.60;;;;;;;15.86;47.00;96579.78;5031125;28;20214;-61
2021/06/02 04:37:37;;;;;;;2.22;1.85;;;;;;;16.07;46.49;96579.50;5030315;28;20205;-61
2021/06/02 04:40:07;;;;;;;1.60;1.50;;;;;;;16.27;46.43;96583.19;5031408;28;20644;-61
2021/06/02 04:42:37;;;;;;;1.98;1.88;;;;;;;16.47;46.57;96588.44;5029927;28;20196;-61
2021/06/02 04:45:08;;;;;;;1.83;1.73;;;;;;;16.67;46.41;96591.03;5030164;28;20270;-61
2021/06/02 04:47:35;;;;;;;2.30;2.10;;;;;;;16.97;46.08;96595.44;5029939;28;20195;-61
2021/06/02 04:50:04;;;;;;;2.58;2.33;;;;;;;17.04;45.90;96591.44;5030972;28;20256;-61
2021/06/02 04:52:33;;;;;;;2.55;2.35;;;;;;;17.18;45.54;96586.31;5012497;28;20208;-62
2021/06/02 04:55:32;;;;;;;3.03;2.20;;;;;;;17.49;44.96;96586.16;5031014;28;20186;-61
2021/06/02 04:58:13;;;;;;;2.60;2.38;;;;;;;17.62;44.54;96590.84;5031131;28;20187;-61
2021/06/02 05:00:57;;;;;;;2.38;2.10;;;;;;;17.53;44.83;96590.63;5030015;28;20358;-61
2021/06/02 05:04:08;;;;;;;2.53;2.33;;;;;;;17.69;44.60;96597.44;5030309;28;20198;-62
2021/06/02 05:07:01;;;;;;;2.13;1.92;;;;;;;17.80;44.58;96603.47;5011968;28;20631;-62
2021/06/02 05:09:55;;;;;;;1.80;1.70;;;;;;;17.93;44.10;96607.34;5030238;28;20619;-61
2021/06/02 05:12:42;;;;;;;2.53;2.00;;;;;;;17.92;44.32;96608.41;5029951;28;20185;-65
2021/06/02 05:15:39;;;;;;;2.20;1.92;;;;;;;18.34;43.83;96621.84;5028710;28;20585;-60
2021/06/02 05:18:27;;;;;;;2.38;2.10;;;;;;;18.40;43.65;96615.41;5030446;28;20551;-61
2021/06/02 05:24:32;;;;;;;3.42;2.40;;;;;;;18.57;43.39;96615.00;5025307;28;20195;-61
2021/06/02 05:27:03;;;;;;;2.47;2.20;;;;;;;18.62;42.96;96625.56;4986234;28;20218;-62
2021/06/02 05:29:58;;;;;;;2.20;2.00;;;;;;;18.47;43.22;96631.00;5030418;28;20210;-62
2021/06/02 05:32:32;;;;;;;2.45;2.25;;;;;;;18.48;43.28;96625.44;5028929;28;20229;-63
2021/06/02 05:35:19;;;;;;;2.35;2.15;;;;;;;18.04;43.57;96625.56;5027008;28;20232;-63
2021/06/02 05:38:22;;;;;;;2.78;2.28;;;;;;;18.13;43.40;96626.53;5029950;28;20187;-62
2021/06/02 05:41:25;;;;;;;2.50;2.30;;;;;;;18.24;43.23;96621.94;5034239;28;20213;-62
2021/06/02 05:44:27;;;;;;;1.90;1.80;;;;;;;18.28;42.72;96625.59;5018722;28;20179;-62
2021/06/02 05:47:20;;;;;;;2.22;1.90;;;;;;;18.36;42.12;96622.34;5033598;28;20210;-62
2021/06/02 05:50:24;;;;;;;2.05;1.90;;;;;;;18.91;41.43;96625.53;5032911;28;20453;-61
2021/06/02 05:53:14;;;;;;;2.00;1.90;;;;;;;18.97;41.08;96616.44;5026986;28;20213;-61
2021/06/02 05:56:07;;;;;;;2.55;2.17;;;;;;;19.04;40.09;96620.34;5032753;28;20225;-61
2021/06/02 05:59:11;;;;;;;2.15;1.83;;;;;;;19.10;40.73;96613.88;5032854;28;20647;-62
2021/06/02 06:02:14;;;;;;;2.08;1.90;;;;;;;19.26;39.88;96613.69;5003682;28;21884;-62
2021/06/02 06:05:14;;;;;;;1.80;1.70;;;;;;;19.46;40.32;96616.09;5032650;28;20526;-62
2021/06/02 06:08:33;;;;;;;2.78;1.88;;;;;;;19.58;39.97;96620.97;5032911;28;20199;-62
2021/06/02 06:11:11;;;;;;;2.38;1.98;;;;;;;19.60;40.17;96624.16;4953201;29;20598;-62
2021/06/02 06:14:00;;;;;;;3.70;2.22;;;;;;;19.75;40.78;96615.94;5032275;28;20206;-61
2021/06/02 06:16:32;;;;;;;2.05;1.92;;;;;;;19.83;41.01;96610.78;5031260;28;20643;-62
2021/06/02 06:19:06;;;;;;;1.98;1.88;;;;;;;19.82;40.90;96617.19;5033355;28;20182;-61
2021/06/02 06:21:50;;;;;;;2.90;2.00;;;;;;;19.96;41.67;96617.22;5032595;28;20182;-62
2021/06/02 06:24:50;;;;;;;2.17;1.92;;;;;;;20.06;39.80;96608.28;5033342;28;20637;-62
2021/06/02 06:27:39;;;;;;;2.55;2.00;;;;;;;19.97;40.24;96612.69;5017928;28;20222;-62
2021/06/02 06:30:33;;;;;;;1.77;1.67;;;;;;;20.08;39.82;96612.22;5033008;28;20199;-61
2021/06/02 06:33:05;;;;;;;3.47;2.20;;;;;;;20.07;40.15;96615.19;5022525;28;20280;-62
2021/06/02 06:35:34;;;;;;;2.30;2.10;;;;;;;20.00;40.52;96623.56;5031616;28;20253;-62
2021/06/02 06:38:00;;;;;;;2.50;2.30;;;;;;;20.12;41.13;96629.19;5032006;28;20189;-62
2021/06/02 06:40:30;;;;;;;3.33;2.40;;;;;;;20.27;41.16;96622.84;5032663;28;20648;-62
2021/06/02 06:42:58;;;;;;;2.20;2.00;;;;;;;20.19;41.51;96626.94;5032552;28;20608;-62
2021/06/02 06:45:27;;;;;;;3.10;2.38;;;;;;;20.19;41.77;96626.16;5029096;28;20261;-64
2021/06/02 06:47:54;;;;;;;3.35;2.08;;;;;;;20.20;41.58;96625.09;5032369;28;20549;-62
2021/06/02 06:50:20;;;;;;;2.63;2.20;;;;;;;20.08;41.87;96627.41;5013791;28;20167;-66
2021/06/02 06:52:53;;;;;;;2.38;2.17;;;;;;;19.96;42.33;96625.19;5031776;28;20183;-63
2021/06/02 06:55:21;;;;;;;4.03;2.42;;;;;;;20.11;41.47;96630.28;5024018;28;20190;-62
2021/06/02 06:57:47;;;;;;;2.80;2.20;;;;;;;20.22;40.71;96626.38;5012485;28;20291;-63
2021/06/02 07:00:14;;;;;;;2.60;2.40;;;;;;;20.18;40.63;96619.25;5012734;28;20598;-63
2021/06/02 07:02:42;;;;;;;2.40;2.00;;;;;;;20.23;39.93;96625.28;5011509;28;20207;-62
2021/06/02 07:05:09;;;;;;;4.70;2.55;;;;;;;20.18;41.09;96617.38;5013111;28;20217;-63
2021/06/02 07:07:44;;;;;;;2.60;2.17;;;;;;;20.12;42.16;96612.44;5011912;28;20206;-62
2021/06/02 07:10:13;;;;;;;2.75;2.50;;;;;;;20.46;42.05;96617.47;5013031;28;20167;-63
2021/06/02 07:12:41;;;;;;;2.83;2.10;;;;;;;20.37;41.78;96613.91;5011815;28;20194;-63
2021/06/02 07:15:07;;;;;;;4.22;2.45;;;;;;;20.14;41.22;96616.41;5012531;28;20659;-63
2021/06/02 07:17:37;;;;;;;3.08;2.60;;;;;;;19.98;43.17;96612.41;5012079;28;20194;-63
2021/06/02 07:20:04;;;;;;;3.03;2.80;;;;;;;19.95;43.49;96607.66;5012860;28;20188;-63
2021/06/02 07:22:30;;;;;;;2.75;2.55;;;;;;;19.78;43.74;96616.16;5011495;28;20274;-63
2021/06/02 07:24:58;;;;;;;2.95;2.50;;;;;;;19.92;43.63;96611.69;5012517;28;20238;-63
2021/06/02 07:27:25;;;;;;;2.28;2.10;;;;;;;19.97;43.24;96613.47;5011278;28;20996;-67
2021/06/02 07:29:51;;;;;;;2.30;2.10;;;;;;;20.21;42.49;96618.69;5012716;28;20718;-63
2021/06/02 07:32:16;;;;;;;2.70;2.50;;;;;;;20.36;42.27;96617.66;5011676;28;20259;-63
2021/06/02 07:34:42;;;;;;;2.80;2.50;;;;;;;20.34;42.52;96624.06;4993322;28;20796;-63
2021/06/02 07:37:07;;;;;;;3.67;2.05;;;;;;;20.32;42.09;96617.47;5014721;28;20187;-63
2021/06/02 07:39:33;;;;;;;3.65;2.10;;;;;;;20.12;42.50;96623.06;5030961;28;20513;-63
2021/06/02 07:41:58;;;;;;;3.22;2.10;;;;;;;20.58;41.96;96618.59;5031708;28;20588;-63
2021/06/02 07:44:24;;;;;;;2.33;2.10;;;;;;;20.56;41.92;96620.75;5030772;28;20663;-67
2021/06/02 07:46:50;;;;;;;2.00;1.85;;;;;;;20.80;40.42;96625.91;5031439;28;20218;-63
2021/06/02 07:49:15;;;;;;;2.28;1.75;;;;;;;20.85;39.27;96619.69;5031730;28;20221;-63
2021/06/02 07:51:41;;;;;;;2.00;1.90;;;;;;;20.88;38.71;96627.88;5030861;28;20181;-62
2021/06/02 07:54:07;;;;;;;2.53;2.13;;;;;;;21.11;39.24;96629.56;5031668;28;20186;-63
2021/06/02 07:56:33;;;;;;;2.55;2.05;;;;;;;21.19;39.71;96624.63;5030877;28;20734;-63
2021/06/02 07:59:01;;;;;;;3.08;2.10;;;;;;;21.20;39.13;96621.69;5031713;28;20182;-63
2021/06/02 08:01:27;;;;;;;2.17;1.85;;;;;;;21.40;39.52;96620.47;5030242;28;20293;-63
2021/06/02 08:03:53;;;;;;;2.15;1.95;;;;;;;21.61;39.56;96620.81;5031431;28;20749;-63
2021/06/02 08:06:19;;;;;;;2.83;2.17;;;;;;;21.72;40.08;96620.28;5027508;28;20214;-63
2021/06/02 08:08:45;;;;;;;1.88;1.73;;;;;;;21.91;38.61;96625.44;5029621;28;20560;-63
2021/06/02 08:11:10;;;;;;;1.70;1.60;;;;;;;21.94;37.66;96627.53;5030511;28;20190;-64
2021/06/02 08:13:36;;;;;;;5.38;1.85;;;;;;;21.97;36.99;96630.41;5029316;28;20198;-64
2021/06/02 08:16:01;;;;;;;1.60;1.50;;;;;;;22.12;37.11;96628.47;5012871;28;20747;-63
2021/06/02 08:18:27;;;;;;;1.80;1.70;;;;;;;22.15;37.33;96628.66;5011107;28;20281;-66
2021/06/02 08:20:52;;;;;;;2.00;1.80;;;;;;;22.16;37.81;96635.56;5030607;28;20267;-63
2021/06/02 08:23:17;;;;;;;1.90;1.80;;;;;;;22.17;36.83;96633.69;5029942;28;20202;-63
2021/06/02 08:25:43;;;;;;;2.20;1.70;;;;;;;22.05;36.35;96639.56;5012490;28;20273;-63
2021/06/02 08:28:08;;;;;;;1.80;1.70;;;;;;;22.05;37.51;96639.56;5030937;28;20654;-63
2021/06/02 08:30:33;;;;;;;1.70;1.60;;;;;;;22.10;36.86;96642.13;5029532;28;20588;-64
2021/06/02 08:32:59;;;;;;;1.40;1.30;;;;;;;22.17;36.79;96636.34;5029973;28;20284;-63
2021/06/02 08:35:25;;;;;;;2.08;1.58;;;;;;;22.22;37.11;96638.91;5017971;28;20620;-67
2021/06/02 08:37:50;;;;;;;2.45;1.77;;;;;;;22.44;36.75;96640.75;5012968;28;20682;-63
2021/06/02 08:40:17;;;;;;;1.38;1.38;;;;;;;22.57;36.75;96639.91;5030660;28;20182;-63
2021/06/02 08:42:44;;;;;;;1.63;1.35;;;;;;;22.62;36.16;96640.56;5029478;28;20256;-64
2021/06/02 08:45:12;;;;;;;2.45;1.65;;;;;;;22.62;35.48;96645.13;5030538;28;20695;-63
2021/06/02 08:47:37;;;;;;;1.70;1.60;;;;;;;22.58;34.62;96644.13;5029657;28;20203;-64
2021/06/02 08:50:10;;;;;;;1.70;1.60;;;;;;;22.57;34.83;96639.91;5030386;28;20393;-64
2021/06/02 08:52:37;;;;;;;1.40;1.40;;;;;;;22.64;34.78;96633.00;5029751;28;20579;-63
2021/06/02 08:55:08;;;;;;;1.60;1.50;;;;;;;22.57;33.99;96637.22;5029888;28;20197;-62
2021/06/02 08:57:37;;;;;;;1.92;1.50;;;;;;;22.71;33.67;96643.25;5029689;28;20193;-63
2021/06/02 09:00:05;;;;;;;5.00;1.50;;;;;;;22.78;33.30;96644.44;5030357;28;20182;-63
2021/06/02 09:02:31;;;;;;;4.55;1.70;;;;;;;22.86;34.97;96642.88;5029613;28;20236;-63
2021/06/02 09:04:56;;;;;;;1.73;1.50;;;;;;;22.72;32.64;96645.66;5030816;28;20194;-63
2021/06/02 09:07:24;;;;;;;1.63;1.52;;;;;;;22.98;33.27;96644.97;5030332;28;20289;-63
2021/06/02 09:09:52;;;;;;;1.38;1.35;;;;;;;23.10;31.75;96645.97;5028977;28;20229;-63
2021/06/02 09:12:31;;;;;;;2.33;1.45;;;;;;;22.85;30.17;96646.63;5030215;28;20187;-64
2021/06/02 09:15:07;;;;;;;1.40;1.30;;;;;;;23.05;29.46;96646.09;5033174;28;20683;-63
2021/06/02 09:17:49;;;;;;;1.30;1.20;;;;;;;22.97;30.65;96648.72;5033120;28;20202;-64
2021/06/02 09:20:42;;;;;;;1.50;1.40;;;;;;;23.17;30.22;96645.50;5034700;28;20182;-63
2021/06/02 09:23:33;;;;;;;2.55;1.60;;;;;;;23.26;29.82;96648.19;5032793;28;20213;-64
2021/06/02 09:26:11;;;;;;;1.30;1.20;;;;;;;23.44;30.53;96645.25;5012613;28;20187;-64
2021/06/02 09:28:54;;;;;;;1.38;1.38;;;;;;;23.49;29.42;96647.81;5033132;28;20252;-63
2021/06/02 09:31:34;;;;;;;1.60;1.50;;;;;;;23.46;29.31;96651.09;5016209;28;20182;-63
2021/06/02 09:34:05;;;;;;;1.63;1.52;;;;;;;23.39;29.57;96656.13;5032484;28;20380;-64
2021/06/02 09:36:39;;;;;;;1.80;1.70;;;;;;;23.43;29.30;96649.03;5015180;28;20186;-64
2021/06/02 09:39:10;;;;;;;1.98;1.80;;;;;;;23.48;29.81;96651.59;5033782;28;20181;-64
2021/06/02 09:41:47;;;;;;;1.50;1.45;;;;;;;23.38;29.80;96648.41;5014187;28;20198;-64
2021/06/02 09:44:14;;;;;;;2.22;1.67;;;;;;;23.14;29.34;96641.56;5016321;28;20186;-63
2021/06/02 09:46:59;;;;;;;1.77;1.67;;;;;;;23.24;29.76;96642.41;5033043;28;20557;-63
2021/06/02 09:49:26;;;;;;;2.00;1.77;;;;;;;23.28;30.45;96644.13;5033749;28;20194;-65
2021/06/02 09:51:52;;;;;;;1.58;1.48;;;;;;;23.31;29.84;96646.16;5033201;28;20186;-62
2021/06/02 09:54:21;;;;;;;1.77;1.67;;;;;;;23.04;29.63;96647.19;5033169;28;20230;-62
2021/06/02 09:56:47;;;;;;;1.80;1.30;;;;;;;22.92;29.87;96647.00;5032866;28;20186;-62
2021/06/02 09:59:13;;;;;;;1.98;1.40;;;;;;;23.02;30.44;96645.91;5033551;28;20183;-62
2021/06/02 10:01:56;;;;;;;1.52;1.42;;;;;;;23.10;30.52;96642.50;5015171;28;20209;-62
2021/06/02 10:04:39;;;;;;;1.55;1.45;;;;;;;23.05;30.19;96637.28;5033821;28;20202;-62
2021/06/02 10:07:16;;;;;;;1.60;1.50;;;;;;;23.04;30.29;96644.53;5033670;28;20337;-62
2021/06/02 10:09:43;;;;;;;1.67;1.58;;;;;;;23.29;29.97;96650.28;5018644;28;20265;-62
2021/06/02 10:12:11;;;;;;;1.48;1.35;;;;;;;23.20;30.10;96655.59;5033767;28;20182;-62
2021/06/02 10:14:57;;;;;;;1.55;1.45;;;;;;;23.34;30.47;96647.44;5032594;28;20558;-64
2021/06/02 10:17:31;;;;;;;2.10;1.58;;;;;;;23.33;30.23;96643.19;5025219;28;20236;-62
2021/06/02 10:20:09;;;;;;;1.88;1.42;;;;;;;23.29;30.99;96647.59;5033560;28;20273;-63
2021/06/02 10:22:35;;;;;;;1.60;1.50;;;;;;;23.12;30.43;96645.66;5024287;28;20305;-63
2021/06/02 10:25:07;;;;;;;1.77;1.60;;;;;;;23.11;30.93;96649.44;5032153;28;20186;-64
2021/06/02 10:27:33;;;;;;;1.45;1.38;;;;;;;23.21;31.32;96649.94;5032393;28;20207;-63
2021/06/02 10:29:59;;;;;;;1.95;1.85;;;;;;;23.20;31.01;96650.22;5033139;28;20241;-63
2021/06/02 10:32:26;;;;;;;1.80;1.70;;;;;;;22.78;31.01;96649.00;5031592;28;20218;-64
2021/06/02 10:34:52;;;;;;;1.88;1.73;;;;;;;22.71;31.99;96643.25;5014196;28;20197;-63
2021/06/02 10:37:20;;;;;;;1.60;1.50;;;;;;;22.60;30.97;96647.28;5033155;28;20206;-63
2021/06/02 10:39:56;;;;;;;1.63;1.50;;;;;;;22.42;31.08;96656.28;5014730;28;20186;-64
2021/06/02 10:42:28;;;;;;;1.80;1.70;;;;;;;22.33;30.86;96650.91;5031841;28;20213;-63
2021/06/02 10:44:59;;;;;;;1.85;1.75;;;;;;;22.21;31.33;96651.47;5032740;28;20224;-63
2021/06/02 10:47:26;;;;;;;2.60;1.45;;;;;;;22.46;31.13;96654.63;5032967;28;20205;-63
2021/06/02 10:49:52;;;;;;;1.67;1.58;;;;;;;22.53;30.46;96652.28;5014703;28;20260;-66
2021/06/02 10:52:37;;;;;;;1.70;1.40;;;;;;;22.63;30.93;96660.81;5032347;28;20641;-62
2021/06/02 10:55:35;;;;;;;2.13;1.90;;;;;;;22.49;31.17;96657.44;5030685;28;20248;-63
2021/06/02 10:58:32;;;;;;;2.75;1.80;;;;;;;22.50;30.78;96653.69;5032441;28;20182;-63
2021/06/02 11:01:04;;;;;;;2.15;1.88;;;;;;;22.58;31.09;96652.94;5017180;28;20535;-62
2021/06/02 11:03:29;;;;;;;1.60;1.50;;;;;;;22.71;31.13;96649.44;5032358;28;20201;-67
2021/06/02 11:05:58;;;;;;;1.77;1.67;;;;;;;22.75;30.52;96650.38;5032138;28;20594;-64
2021/06/02 11:09:05;;;;;;;1.83;1.73;;;;;;;22.67;30.14;96644.97;5014976;28;20620;-62
2021/06/02 11:11:42;;;;;;;1.60;1.50;;;;;;;22.69;29.47;96646.22;5031993;28;20187;-66
2021/06/02 11:14:17;;;;;;;1.80;1.70;;;;;;;22.83;29.49;96640.03;5014710;28;20218;-63
2021/06/02 11:16:53;;;;;;;1.58;1.58;;;;;;;22.98;29.81;96650.31;5013010;28;20194;-63
2021/06/02 11:19:25;;;;;;;1.85;1.75;;;;;;;22.97;29.26;96654.88;5029594;28;20174;-63
2021/06/02 11:21:56;;;;;;;1.70;1.60;;;;;;;22.90;29.98;96657.22;5031521;28;20201;-62
2021/06/02 11:24:34;;;;;;;3.45;1.70;;;;;;;22.75;29.86;96646.91;5031747;28;20553;-63
2021/06/02 11:27:15;;;;;;;2.75;1.90;;;;;;;22.86;29.45;96645.56;5031622;28;20218;-63
2021/06/02 11:29:52;;;;;;;1.40;1.40;;;;;;;22.82;30.37;96639.25;5031146;28;20183;-63
2021/06/02 11:32:22;;;;;;;1.83;1.73;;;;;;;22.84;30.11;96647.75;5031124;28;20266;-62
2021/06/02 11:35:03;;;;;;;2.67;1.80;;;;;;;22.82;30.42;96655.28;5030892;28;20218;-63
2021/06/02 11:37:31;;;;;;;1.90;1.60;;;;;;;22.82;29.86;96647.28;5031913;28;20189;-67
2021/06/02 11:40:08;;;;;;;1.80;1.67;;;;;;;22.72;29.65;96644.88;5031612;28;20682;-63
2021/06/02 11:42:46;;;;;;;1.67;1.50;;;;;;;22.96;29.67;96650.63;5030529;28;20187;-64
2021/06/02 11:45:17;;;;;;;2.03;1.60;;;;;;;22.90;30.37;96651.09;5031022;28;20236;-63
2021/06/02 11:47:51;;;;;;;1.98;1.85;;;;;;;23.07;30.26;96646.56;5030840;28;20206;-63
2021/06/02 11:50:21;;;;;;;2.28;1.90;;;;;;;23.07;29.42;96641.22;5031594;28;20186;-64
2021/06/02 11:52:57;;;;;;;1.73;1.63;;;;;;;23.06;28.88;96654.91;5030472;28;20224;-62
2021/06/02 11:55:24;;;;;;;2.78;1.95;;;;;;;23.29;29.56;96647.59;5030357;28;20197;-63
2021/06/02 11:57:53;;;;;;;2.30;2.10;;;;;;;23.29;28.63;96655.63;5030226;28;20183;-64
2021/06/02 12:00:20;;;;;;;1.83;1.70;;;;;;;23.20;29.28;96656.38;5013665;28;20178;-63
2021/06/02 12:02:46;;;;;;;1.60;1.50;;;;;;;23.35;29.34;96663.16;5030532;28;20276;-63
2021/06/02 12:05:26;;;;;;;1.90;1.80;;;;;;;23.34;29.73;96658.16;5031239;28;20202;-63
2021/06/02 12:07:54;;;;;;;2.00;1.60;;;;;;;23.39;30.06;96652.66;5030613;28;20204;-63
2021/06/02 12:10:24;;;;;;;2.65;1.65;;;;;;;23.33;29.24;96661.91;5030878;28;21799;-65
2021/06/02 12:12:51;;;;;;;2.17;2.08;;;;;;;23.18;29.41;96655.88;5030474;28;20198;-62
2021/06/02 12:15:18;;;;;;;1.70;1.60;;;;;;;23.25;29.62;96654.66;5013021;28;20285;-63
2021/06/02 12:17:45;;;;;;;2.38;1.77;;;;;;;23.31;29.78;96664.91;5029956;28;20194;-62